createdAt,value
2019-05-23T00:01:54.144Z,6.43
2019-05-23T00:04:40.506Z,5.47
2019-05-23T00:07:10.660Z,5.30
2019-05-23T00:09:40.217Z,4.67
2019-05-23T00:12:15.169Z,7.00
2019-05-23T00:14:52.394Z,6.50
2019-05-23T00:17:22.694Z,4.80
2019-05-23T00:19:51.708Z,4.63
2019-05-23T00:22:20.720Z,5.60
2019-05-23T00:24:49.795Z,4.40
2019-05-23T00:27:19.914Z,4.47
2019-05-23T00:29:49.697Z,4.40
2019-05-23T00:32:31.929Z,5.37
2019-05-23T00:35:02.744Z,5.40
2019-05-23T00:37:32.274Z,4.70
2019-05-23T00:40:01.370Z,4.67
2019-05-23T00:42:32.075Z,4.97
2019-05-23T00:45:01.428Z,4.10
2019-05-23T00:47:30.597Z,4.87
2019-05-23T00:49:59.407Z,4.40
2019-05-23T00:52:29.582Z,4.20
2019-05-23T00:54:58.662Z,4.27
2019-05-23T00:57:28.966Z,4.03
2019-05-23T00:59:58.230Z,4.20
2019-05-23T01:02:34.324Z,7.17
2019-05-23T01:05:03.865Z,4.30
2019-05-23T01:07:33.254Z,4.97
2019-05-23T01:10:03.440Z,3.93
2019-05-23T01:12:33.589Z,4.00
2019-05-23T01:15:03.730Z,3.93
2019-05-23T01:17:33.971Z,3.90
2019-05-23T01:20:03.719Z,4.40
2019-05-23T01:22:32.812Z,4.77
2019-05-23T01:25:01.310Z,4.80
2019-05-23T01:27:31.041Z,4.30
2019-05-23T01:30:00.156Z,4.50
2019-05-23T01:32:30.273Z,5.20
2019-05-23T01:34:59.636Z,5.40
2019-05-23T01:37:29.108Z,4.50
2019-05-23T01:39:59.080Z,5.23
2019-05-23T01:42:28.848Z,4.60
2019-05-23T01:44:59.421Z,4.10
2019-05-23T01:47:28.755Z,5.30
2019-05-23T01:49:58.748Z,4.97
2019-05-23T01:52:27.891Z,5.20
2019-05-23T01:54:57.344Z,4.70
2019-05-23T01:57:26.822Z,5.13
2019-05-23T02:00:09.037Z,4.70
2019-05-23T02:02:27.895Z,5.00
2019-05-23T02:04:56.896Z,5.07
2019-05-23T02:07:26.452Z,5.20
2019-05-23T02:09:55.690Z,4.43
2019-05-23T02:12:25.085Z,11.90
2019-05-23T02:14:54.857Z,5.23
2019-05-23T02:17:24.871Z,4.63
2019-05-23T02:19:54.350Z,4.80
2019-05-23T02:22:24.138Z,4.50
2019-05-23T02:24:53.684Z,4.80
2019-05-23T02:27:23.821Z,4.37
2019-05-23T02:29:52.797Z,4.93
2019-05-23T02:32:22.145Z,5.17
2019-05-23T02:34:52.397Z,5.30
2019-05-23T02:37:25.815Z,4.40
2019-05-23T02:39:56.387Z,4.63
2019-05-23T02:42:36.810Z,4.97
2019-05-23T02:45:08.231Z,5.37
2019-05-23T02:47:38.994Z,4.60
2019-05-23T02:50:12.949Z,4.90
2019-05-23T02:52:45.111Z,4.90
2019-05-23T02:55:23.126Z,5.63
2019-05-23T02:57:53.646Z,7.07
2019-05-23T03:00:53.180Z,5.20
2019-05-23T03:03:14.644Z,6.43
2019-05-23T03:05:45.393Z,6.33
2019-05-23T03:08:16.974Z,48.53
2019-05-23T03:10:58.339Z,29.10
2019-05-23T03:13:29.146Z,12.20
2019-05-23T03:15:58.963Z,8.40
2019-05-23T03:18:34.427Z,5.60
2019-05-23T03:21:02.317Z,6.00
2019-05-23T03:23:33.236Z,5.10
2019-05-23T03:26:32.674Z,5.60
2019-05-23T03:29:01.727Z,6.13
2019-05-23T03:31:34.512Z,6.17
2019-05-23T03:34:04.467Z,7.07
2019-05-23T03:36:33.470Z,5.33
2019-05-23T03:39:23.789Z,4.60
2019-05-23T03:41:53.052Z,5.33
2019-05-23T03:44:23.307Z,6.10
2019-05-23T03:46:53.737Z,5.57
2019-05-23T03:49:22.897Z,7.63
2019-05-23T03:51:51.987Z,5.57
2019-05-23T03:54:21.522Z,5.73
2019-05-23T03:56:50.677Z,5.40
2019-05-23T03:59:19.691Z,5.47
2019-05-23T04:01:49.451Z,5.80
2019-05-23T04:04:19.294Z,4.43
2019-05-23T04:06:48.706Z,7.23
2019-05-23T04:09:17.771Z,6.47
2019-05-23T04:11:46.785Z,8.00
2019-05-23T04:14:16.303Z,6.20
2019-05-23T04:16:45.484Z,4.90
2019-05-23T04:19:14.048Z,5.80
2019-05-23T04:21:43.122Z,5.93
2019-05-23T04:24:12.576Z,13.50
2019-05-23T04:26:41.648Z,9.67
2019-05-23T04:29:11.029Z,7.10
2019-05-23T04:31:39.439Z,6.57
2019-05-23T04:34:09.156Z,5.67
2019-05-23T04:36:38.309Z,6.90
2019-05-23T04:39:08.168Z,5.40
2019-05-23T04:41:37.351Z,6.30
2019-05-23T04:44:07.399Z,6.87
2019-05-23T04:46:36.094Z,6.57
2019-05-23T04:49:05.379Z,6.60
2019-05-23T04:51:34.716Z,5.67
2019-05-23T04:54:04.840Z,6.33
2019-05-23T04:56:33.821Z,6.20
2019-05-23T04:59:04.391Z,5.47
2019-05-23T05:01:33.181Z,6.40
2019-05-23T05:04:04.750Z,6.00
2019-05-23T05:06:34.307Z,5.90
2019-05-23T05:09:05.044Z,6.03
2019-05-23T05:11:34.477Z,6.50
2019-05-23T05:14:03.494Z,6.70
2019-05-23T05:16:32.338Z,5.50
2019-05-23T05:19:01.597Z,7.87
2019-05-23T05:21:30.629Z,6.17
2019-05-23T05:23:59.862Z,6.70
2019-05-23T05:26:28.926Z,6.10
2019-05-23T05:28:57.820Z,8.17
2019-05-23T05:31:26.625Z,9.07
2019-05-23T05:33:56.188Z,7.23
2019-05-23T05:36:25.455Z,10.40
2019-05-23T05:38:55.306Z,6.23
2019-05-23T05:41:24.892Z,5.67
2019-05-23T05:43:54.173Z,6.23
2019-05-23T05:46:24.027Z,6.03
2019-05-23T05:48:53.290Z,5.87
2019-05-23T05:51:22.630Z,6.13
2019-05-23T05:53:51.935Z,5.90
2019-05-23T05:56:20.961Z,6.30
2019-05-23T05:58:49.738Z,5.53
2019-05-23T06:01:32.759Z,5.70
2019-05-23T06:03:50.446Z,6.63
2019-05-23T06:06:20.931Z,6.20
2019-05-23T06:08:53.952Z,7.37
2019-05-23T06:11:23.120Z,6.57
2019-05-23T06:13:52.221Z,6.50
2019-05-23T06:16:21.439Z,5.97
2019-05-23T06:18:50.011Z,6.40
2019-05-23T06:21:23.106Z,8.67
2019-05-23T06:23:52.982Z,6.90
2019-05-23T06:26:22.058Z,7.67
2019-05-23T06:28:51.149Z,6.97
2019-05-23T06:31:21.752Z,7.67
2019-05-23T06:33:50.479Z,11.03
2019-05-23T06:36:19.466Z,9.23
2019-05-23T06:39:34.283Z,7.97
2019-05-23T06:42:04.446Z,10.37
2019-05-23T06:44:33.589Z,7.80
2019-05-23T06:47:02.586Z,8.07
2019-05-23T06:49:31.772Z,8.37
2019-05-23T06:52:00.764Z,8.80
2019-05-23T06:54:30.151Z,8.30
2019-05-23T06:56:59.229Z,8.00
2019-05-23T06:59:28.132Z,8.03
2019-05-23T07:01:57.666Z,8.20
2019-05-23T07:04:27.150Z,7.87
2019-05-23T07:06:56.154Z,8.47
2019-05-23T07:09:25.248Z,9.13
2019-05-23T07:11:57.355Z,7.57
2019-05-23T07:14:26.239Z,8.77
2019-05-23T07:16:55.299Z,8.10
2019-05-23T07:19:24.306Z,11.67
2019-05-23T07:21:53.558Z,8.67
2019-05-23T07:24:22.796Z,8.13
2019-05-23T07:26:51.873Z,9.07
2019-05-23T07:29:20.307Z,9.43
2019-05-23T07:31:49.410Z,7.93
2019-05-23T07:34:19.042Z,7.57
2019-05-23T07:36:48.307Z,7.87
2019-05-23T07:39:18.067Z,8.97
2019-05-23T07:41:47.373Z,8.73
2019-05-23T07:44:16.350Z,8.80
2019-05-23T07:46:45.901Z,12.20
2019-05-23T07:49:15.141Z,9.97
2019-05-23T07:51:44.336Z,11.23
2019-05-23T07:54:14.777Z,9.20
2019-05-23T07:56:44.141Z,9.77
2019-05-23T07:59:13.170Z,12.03
2019-05-23T08:01:45.761Z,11.40
2019-05-23T08:04:21.975Z,10.80
2019-05-23T08:06:49.006Z,10.20
2019-05-23T08:09:18.474Z,12.07
2019-05-23T08:11:47.522Z,10.83
2019-05-23T08:14:16.811Z,12.47
2019-05-23T08:16:45.922Z,12.13
2019-05-23T08:19:19.276Z,9.57
2019-05-23T08:21:47.168Z,10.30
2019-05-23T08:24:15.837Z,10.63
2019-05-23T08:26:46.695Z,9.13
2019-05-23T08:29:26.116Z,8.90
2019-05-23T08:31:47.009Z,8.57
2019-05-23T08:34:16.530Z,8.13
2019-05-23T08:36:46.147Z,11.00
2019-05-23T08:39:16.074Z,8.00
2019-05-23T08:41:45.789Z,9.53
2019-05-23T08:44:16.089Z,9.70
2019-05-23T08:46:46.201Z,11.28
2019-05-23T08:49:15.190Z,9.13
2019-05-23T08:51:44.548Z,9.08
2019-05-23T08:54:13.514Z,9.45
2019-05-23T08:56:42.802Z,9.95
2019-05-23T08:59:13.425Z,10.28
2019-05-23T09:01:43.254Z,8.75
2019-05-23T09:04:12.255Z,9.25
2019-05-23T09:06:43.394Z,8.50
2019-05-23T09:09:28.556Z,8.10
2019-05-23T09:11:44.073Z,8.05
2019-05-23T09:14:13.400Z,7.75
2019-05-23T09:16:42.922Z,10.43
2019-05-23T09:19:11.984Z,8.80
2019-05-23T09:21:41.058Z,5.85
2019-05-23T09:24:12.786Z,7.05
2019-05-23T09:26:42.105Z,6.70
2019-05-23T09:29:11.179Z,6.80
2019-05-23T09:31:40.452Z,7.95
2019-05-23T09:34:09.677Z,7.95
2019-05-23T09:36:38.343Z,7.15
2019-05-23T09:39:09.165Z,7.03
2019-05-23T09:41:38.878Z,6.35
2019-05-23T09:44:08.287Z,6.78
2019-05-23T09:46:38.795Z,6.50
2019-05-23T09:49:11.123Z,5.60
2019-05-23T09:51:38.509Z,5.62
2019-05-23T09:54:07.752Z,9.18
2019-05-23T09:56:37.281Z,6.70
2019-05-23T09:59:06.354Z,6.15
2019-05-23T10:01:36.178Z,6.28
2019-05-23T10:04:04.974Z,5.20
2019-05-23T10:06:34.294Z,4.95
2019-05-23T10:09:04.505Z,4.37
2019-05-23T10:11:33.695Z,4.65
2019-05-23T10:14:03.930Z,4.35
2019-05-23T10:16:33.199Z,5.00
2019-05-23T10:19:02.199Z,4.50
2019-05-23T10:21:32.201Z,4.90
2019-05-23T10:24:01.101Z,4.92
2019-05-23T10:26:30.253Z,4.45
2019-05-23T10:28:59.546Z,5.58
2019-05-23T10:31:29.985Z,4.97
2019-05-23T10:33:59.265Z,5.00
2019-05-23T10:36:28.562Z,4.62
2019-05-23T10:38:57.544Z,5.80
2019-05-23T10:41:27.598Z,5.00
2019-05-23T10:43:57.609Z,4.35
2019-05-23T10:46:26.321Z,5.90
2019-05-23T10:48:56.618Z,4.65
2019-05-23T10:51:25.550Z,5.40
2019-05-23T10:53:58.439Z,5.75
2019-05-23T10:56:42.480Z,4.87
2019-05-23T10:59:17.909Z,4.87
2019-05-23T11:01:47.299Z,4.60
2019-05-23T11:04:16.681Z,4.17
2019-05-23T11:06:51.913Z,4.62
2019-05-23T11:09:36.627Z,4.78
2019-05-23T11:11:52.182Z,5.97
2019-05-23T11:14:22.435Z,4.40
2019-05-23T11:16:51.638Z,4.15
2019-05-23T11:19:24.984Z,4.58
2019-05-23T11:21:56.613Z,4.45
2019-05-23T11:31:12.200Z,5.90
2019-05-23T11:33:52.242Z,4.58
2019-05-23T11:36:34.584Z,5.30
2019-05-23T11:38:59.238Z,4.28
2019-05-23T11:41:28.171Z,4.60
2019-05-23T11:43:59.985Z,3.98
2019-05-23T11:46:33.130Z,4.25
2019-05-23T11:49:05.081Z,4.75
2019-05-23T11:55:16.208Z,4.67
2019-05-23T11:57:47.007Z,4.33
2019-05-23T12:00:18.737Z,4.75
2019-05-23T12:02:50.771Z,4.97
2019-05-23T12:05:24.202Z,4.35
2019-05-23T12:07:56.505Z,4.12
2019-05-23T12:10:25.922Z,4.70
2019-05-23T12:12:54.993Z,4.20
2019-05-23T12:15:25.300Z,5.08
2019-05-23T12:17:54.712Z,5.42
2019-05-23T12:20:24.988Z,4.87
2019-05-23T12:23:18.921Z,4.37
2019-05-23T12:25:50.126Z,4.85
2019-05-23T12:28:19.692Z,5.08
2019-05-23T12:30:48.184Z,5.17
2019-05-23T12:33:17.412Z,5.50
2019-05-23T12:35:46.523Z,5.28
2019-05-23T12:38:15.805Z,5.75
2019-05-23T12:40:44.826Z,5.95
2019-05-23T12:43:13.875Z,5.00
2019-05-23T12:45:43.185Z,6.70
2019-05-23T12:48:22.219Z,5.53
2019-05-23T12:50:55.362Z,6.12
2019-05-23T12:53:24.938Z,5.10
2019-05-23T12:55:53.968Z,5.40
2019-05-23T12:58:24.322Z,5.17
2019-05-23T13:00:56.896Z,5.80
2019-05-23T13:03:26.237Z,6.80
2019-05-23T13:05:55.474Z,6.00
2019-05-23T13:08:24.568Z,5.42
2019-05-23T13:10:53.730Z,6.28
2019-05-23T13:13:22.826Z,5.40
2019-05-23T13:15:51.866Z,13.72
2019-05-23T13:18:20.358Z,6.37
2019-05-23T13:20:49.462Z,5.97
2019-05-23T13:23:21.193Z,5.35
2019-05-23T13:25:49.973Z,4.95
2019-05-23T13:28:19.133Z,6.28
2019-05-23T13:30:48.367Z,4.80
2019-05-23T13:33:17.312Z,5.28
2019-05-23T13:35:46.382Z,5.87
2019-05-23T13:38:15.536Z,6.10
2019-05-23T13:40:44.600Z,5.55
2019-05-23T13:43:13.642Z,4.35
2019-05-23T13:45:42.763Z,4.42
2019-05-23T13:48:11.448Z,5.17
2019-05-23T13:50:40.952Z,4.60
2019-05-23T13:53:10.752Z,4.60
2019-05-23T13:55:39.821Z,6.12
2019-05-23T13:58:08.848Z,4.90
2019-05-23T14:00:38.412Z,4.97
2019-05-23T14:03:07.080Z,4.50
2019-05-23T14:05:36.276Z,4.47
2019-05-23T14:08:12.222Z,5.35
2019-05-23T14:10:36.575Z,4.47
2019-05-23T14:13:05.660Z,4.65
2019-05-23T14:15:50.666Z,4.55
2019-05-23T14:18:24.173Z,5.35
2019-05-23T14:20:53.259Z,5.10
2019-05-23T14:23:23.412Z,4.80
2019-05-23T14:25:53.073Z,4.42
2019-05-23T14:28:22.087Z,4.28
2019-05-23T14:31:09.329Z,5.15
2019-05-23T14:33:45.365Z,4.12
2019-05-23T14:36:23.867Z,4.37
2019-05-23T14:38:53.670Z,3.80
2019-05-23T14:41:23.072Z,4.58
2019-05-23T14:43:53.081Z,4.58
2019-05-23T14:46:22.843Z,4.15
2019-05-23T14:48:52.936Z,4.33
2019-05-23T14:51:23.018Z,3.95
2019-05-23T14:53:53.165Z,5.05
2019-05-23T14:56:24.102Z,4.80
2019-05-23T14:58:53.304Z,4.40
2019-05-23T15:01:23.423Z,4.00
2019-05-23T15:03:52.532Z,4.95
2019-05-23T15:06:21.723Z,4.58
2019-05-23T15:08:51.993Z,4.30
2019-05-23T15:11:21.821Z,4.70
2019-05-23T15:13:51.276Z,4.62
2019-05-23T15:16:20.633Z,4.37
2019-05-23T15:18:49.753Z,4.15
2019-05-23T15:21:18.253Z,5.35
2019-05-23T15:23:47.395Z,4.35
2019-05-23T15:26:23.188Z,4.00
2019-05-23T15:28:47.285Z,4.42
2019-05-23T15:31:16.453Z,4.47
2019-05-23T15:33:45.561Z,4.08
2019-05-23T15:36:14.042Z,4.40
2019-05-23T15:38:43.182Z,4.15
2019-05-23T15:41:12.456Z,4.25
2019-05-23T15:43:41.569Z,4.35
2019-05-23T15:46:10.647Z,8.15
2019-05-23T15:48:40.859Z,4.55
2019-05-23T15:51:10.530Z,4.17
2019-05-23T15:53:49.670Z,4.08
2019-05-23T15:56:32.063Z,3.75
2019-05-23T15:59:18.344Z,3.67
2019-05-23T16:02:03.358Z,3.98
2019-05-23T16:04:32.646Z,7.25
2019-05-23T16:07:01.737Z,4.00
2019-05-23T16:09:31.251Z,4.47
2019-05-23T16:12:00.531Z,4.55
2019-05-23T16:14:29.826Z,4.67
2019-05-23T16:16:58.830Z,5.30
2019-05-23T16:19:27.428Z,3.50
2019-05-23T16:21:57.023Z,4.37
2019-05-23T16:24:26.038Z,4.50
2019-05-23T16:26:55.395Z,3.70
2019-05-23T16:29:24.511Z,3.52
2019-05-23T16:31:53.650Z,6.40
2019-05-23T16:34:22.314Z,5.17
2019-05-23T16:36:51.326Z,3.83
2019-05-23T16:39:20.774Z,4.92
2019-05-23T16:41:49.842Z,3.95
2019-05-23T16:44:18.954Z,5.55
2019-05-23T16:46:47.412Z,4.50
2019-05-23T16:49:16.691Z,3.15
2019-05-23T16:51:45.746Z,3.67
2019-05-23T16:54:15.706Z,3.70
2019-05-23T16:56:48.614Z,3.80
2019-05-23T16:59:21.655Z,6.12
2019-05-23T17:02:00.448Z,3.33
2019-05-23T17:04:35.557Z,3.95
2019-05-23T17:07:22.262Z,3.40
2019-05-23T17:10:07.491Z,3.22
2019-05-23T17:12:33.067Z,4.92
2019-05-23T17:15:07.702Z,3.42
2019-05-23T17:18:02.364Z,4.30
2019-05-23T17:20:43.705Z,5.03
2019-05-23T17:23:29.148Z,3.80
2019-05-23T17:26:16.133Z,3.10
2019-05-23T17:28:54.960Z,3.90
2019-05-23T17:31:30.782Z,3.83
2019-05-23T17:33:59.796Z,3.60
2019-05-23T17:36:28.249Z,3.62
2019-05-23T17:38:58.056Z,3.75
2019-05-23T17:41:27.346Z,4.33
2019-05-23T17:43:56.377Z,3.40
2019-05-23T17:46:25.461Z,3.58
2019-05-23T17:48:54.633Z,3.55
2019-05-23T17:51:23.087Z,3.33
2019-05-23T17:53:52.157Z,3.42
2019-05-23T17:56:21.200Z,3.92
2019-05-23T17:58:50.379Z,3.37
2019-05-23T18:01:19.568Z,4.17
2019-05-23T18:03:48.599Z,3.50
2019-05-23T18:06:17.110Z,2.87
2019-05-23T18:08:50.889Z,3.50
2019-05-23T18:11:21.545Z,4.37
2019-05-23T18:13:51.028Z,3.30
2019-05-23T18:16:20.498Z,3.20
2019-05-23T18:18:49.935Z,3.12
2019-05-23T18:21:22.273Z,2.98
2019-05-23T18:23:54.643Z,3.22
2019-05-23T18:26:25.240Z,2.62
2019-05-23T18:28:54.651Z,4.22
2019-05-23T18:31:25.360Z,3.25
2019-05-23T18:33:54.851Z,4.12
2019-05-23T18:40:08.291Z,5.42
2019-05-23T18:42:37.467Z,3.33
2019-05-23T18:45:10.026Z,3.27
2019-05-23T18:47:43.484Z,3.35
2019-05-23T18:50:13.903Z,3.22
2019-05-23T18:52:43.094Z,3.83
2019-05-23T18:55:12.608Z,6.78
2019-05-23T18:57:42.618Z,3.58
2019-05-23T19:00:14.177Z,3.20
2019-05-23T19:02:43.487Z,3.08
2019-05-23T19:05:14.272Z,3.35
2019-05-23T19:07:43.377Z,4.30
2019-05-23T19:10:13.247Z,4.00
2019-05-23T19:12:44.040Z,7.10
2019-05-23T19:15:14.359Z,2.85
2019-05-23T19:17:43.760Z,3.83
2019-05-23T19:20:12.611Z,4.10
2019-05-23T19:22:41.676Z,3.30
2019-05-23T19:25:12.594Z,4.10
2019-05-23T19:27:41.649Z,3.37
2019-05-23T19:30:12.233Z,5.70
2019-05-23T19:32:41.946Z,3.25
2019-05-23T19:35:11.633Z,3.65
2019-05-23T19:37:42.247Z,5.47
2019-05-23T19:40:13.189Z,3.33
2019-05-23T19:42:42.589Z,4.20
2019-05-23T19:45:13.241Z,3.60
2019-05-23T19:47:42.453Z,3.58
2019-05-23T19:50:11.624Z,3.80
2019-05-23T19:52:40.804Z,3.60
2019-05-23T19:55:09.862Z,3.37
2019-05-23T19:57:39.166Z,3.70
2019-05-23T20:00:11.153Z,3.50
2019-05-23T20:02:50.213Z,3.65
2019-05-23T20:05:34.455Z,4.05
2019-05-23T20:08:05.599Z,4.85
2019-05-23T20:10:35.485Z,4.28
2019-05-23T20:13:05.411Z,5.65
2019-05-23T20:15:35.065Z,4.12
2019-05-23T20:18:08.027Z,3.95
2019-05-23T20:20:39.155Z,3.98
2019-05-23T20:23:10.351Z,3.90
2019-05-23T20:29:09.157Z,4.25
2019-05-23T20:31:38.493Z,4.95
2019-05-23T20:34:08.102Z,4.28
2019-05-23T20:36:37.601Z,4.37
2019-05-23T20:39:08.330Z,4.90
2019-05-23T20:41:37.938Z,4.40
2019-05-23T20:44:07.021Z,5.10
2019-05-23T20:46:36.701Z,5.83
2019-05-23T20:49:08.054Z,4.53
2019-05-23T20:55:07.508Z,5.65
2019-05-23T20:57:36.725Z,4.83
2019-05-23T21:03:36.249Z,5.33
2019-05-23T21:06:07.100Z,6.87
2019-05-23T21:12:29.442Z,4.92
2019-05-23T21:14:48.270Z,4.95
2019-05-23T21:17:18.697Z,4.47
2019-05-23T21:19:48.190Z,6.60
2019-05-23T21:22:17.421Z,5.75
2019-05-23T21:24:46.519Z,4.62
2019-05-23T21:27:15.428Z,7.03
2019-05-23T21:29:45.642Z,4.30
2019-05-23T21:32:14.956Z,4.72
2019-05-23T21:34:45.310Z,4.45
2019-05-23T21:37:14.736Z,4.53
2019-05-23T21:39:44.955Z,4.55
2019-05-23T21:42:13.921Z,4.58
2019-05-23T21:44:43.212Z,4.72
2019-05-23T21:47:12.715Z,4.75
2019-05-23T21:49:41.712Z,4.78
2019-05-23T21:52:10.971Z,4.90
2019-05-23T21:54:39.648Z,4.62
2019-05-23T21:57:09.933Z,4.75
2019-05-23T21:59:39.230Z,5.53
2019-05-23T22:02:12.059Z,5.08
2019-05-23T22:04:45.413Z,5.10
2019-05-23T22:07:14.293Z,5.58
2019-05-23T22:09:44.777Z,5.25
2019-05-23T22:12:15.336Z,4.80
2019-05-23T22:14:44.935Z,6.22
2019-05-23T22:17:15.415Z,5.12
2019-05-23T22:19:44.410Z,6.60
2019-05-23T22:22:13.843Z,4.85
2019-05-23T22:24:43.672Z,5.60
2019-05-23T22:27:13.602Z,5.30
2019-05-23T22:29:42.852Z,7.65
2019-05-23T22:32:13.910Z,6.37
2019-05-23T22:34:44.216Z,6.05
2019-05-23T22:37:14.547Z,5.62
2019-05-23T22:39:44.170Z,6.17
2019-05-23T22:42:13.510Z,5.37
2019-05-23T22:44:42.712Z,5.65
2019-05-23T22:47:12.212Z,6.17
2019-05-23T22:53:09.437Z,8.28
2019-05-23T22:55:39.192Z,7.42
2019-05-23T22:58:08.102Z,6.60
2019-05-23T23:00:44.705Z,6.60
2019-05-23T23:03:13.845Z,6.35
2019-05-23T23:05:43.207Z,6.12
2019-05-23T23:08:12.245Z,5.85
2019-05-23T23:10:42.086Z,5.90
2019-05-23T23:13:11.505Z,6.95
2019-05-23T23:15:40.452Z,5.95
2019-05-23T23:18:09.552Z,6.00
2019-05-23T23:20:39.252Z,5.65
2019-05-23T23:23:08.585Z,6.25
2019-05-23T23:25:37.820Z,6.42
2019-05-23T23:28:07.058Z,6.30
2019-05-23T23:30:41.584Z,5.30
2019-05-23T23:33:10.588Z,6.12
2019-05-23T23:35:39.257Z,5.80
2019-05-23T23:38:08.670Z,6.70
2019-05-23T23:40:37.960Z,5.70
2019-05-23T23:43:08.296Z,5.70
2019-05-23T23:45:55.175Z,5.95
2019-05-23T23:48:41.432Z,5.40
2019-05-23T23:51:27.852Z,5.97
2019-05-23T23:54:14.259Z,5.85
2019-05-23T23:57:01.651Z,6.20
2019-05-23T23:59:29.577Z,5.87
